Time,TemperatureF,DewpointF,PressureIn,WindDirection,WindDirectionDegrees,WindSpeedMPH,WindSpeedGustMPH,Humidity,HourlyPrecipIn,Conditions,Clouds,dailyrainin,SolarRadiationWatts/m^2,SoftwareType,DateUTC
2013-04-16 00:02:00,12.0,5.0,-100.00,NW,313,4.0,5.0,75,0.00,,,0.00,0.700000,,2013-04-16 08:02:00,
2013-04-16 00:12:00,12.0,5.0,-100.00,NW,313,4.0,5.0,75,0.00,,,0.00,0.700000,,2013-04-16 08:12:00,
2013-04-16 00:22:00,12.0,5.0,-100.00,NW,313,4.0,5.0,75,0.00,,,0.00,0.700000,,2013-04-16 08:22:00,
2013-04-16 00:32:00,12.0,5.0,-100.00,NW,313,4.0,5.0,75,0.00,,,0.00,0.700000,,2013-04-16 08:32:00,
2013-04-16 00:41:00,12.0,5.0,-100.00,NW,313,4.0,5.0,75,0.00,,,0.00,0.700000,,2013-04-16 08:41:00,
2013-04-16 01:02:00,11.0,6.0,-100.00,NW,305,5.0,5.0,77,0.00,,,0.00,0.700000,,2013-04-16 09:02:00,
2013-04-16 01:12:00,11.0,6.0,-100.00,NW,305,5.0,5.0,77,0.00,,,0.00,0.700000,,2013-04-16 09:12:00,
2013-04-16 01:22:00,11.0,6.0,-100.00,NW,305,5.0,5.0,77,0.00,,,0.00,0.700000,,2013-04-16 09:22:00,
2013-04-16 01:32:00,11.0,6.0,-100.00,NW,305,5.0,5.0,77,0.00,,,0.00,0.700000,,2013-04-16 09:32:00,
2013-04-16 01:42:00,11.0,6.0,-100.00,NW,305,5.0,5.0,77,0.00,,,0.00,0.700000,,2013-04-16 09:42:00,
2013-04-16 02:03:00,11.0,4.0,-100.00,NW,315,2.0,7.0,75,0.00,,,0.00,0.700000,,2013-04-16 10:03:00,
2013-04-16 02:13:00,11.0,4.0,-100.00,NW,315,2.0,7.0,75,0.00,,,0.00,0.700000,,2013-04-16 10:13:00,
2013-04-16 02:22:00,11.0,4.0,-100.00,NW,315,2.0,7.0,75,0.00,,,0.00,0.700000,,2013-04-16 10:22:00,
2013-04-16 02:32:00,11.0,4.0,-100.00,NW,315,2.0,7.0,75,0.00,,,0.00,0.700000,,2013-04-16 10:32:00,
2013-04-16 02:42:00,11.0,4.0,-100.00,NW,315,2.0,7.0,75,0.00,,,0.00,0.700000,,2013-04-16 10:42:00,
2013-04-16 03:02:00,10.0,3.0,-100.00,WNW,303,5.0,6.0,73,0.00,,,0.00,0.700000,,2013-04-16 11:02:00,
2013-04-16 03:12:00,10.0,3.0,-100.00,WNW,303,5.0,6.0,73,0.00,,,0.00,0.700000,,2013-04-16 11:12:00,
2013-04-16 03:22:00,10.0,3.0,-100.00,WNW,303,5.0,6.0,73,0.00,,,0.00,0.700000,,2013-04-16 11:22:00,
2013-04-16 03:32:00,10.0,3.0,-100.00,WNW,303,5.0,6.0,73,0.00,,,0.00,0.700000,,2013-04-16 11:32:00,
2013-04-16 03:42:00,10.0,3.0,-100.00,WNW,303,5.0,6.0,73,0.00,,,0.00,0.700000,,2013-04-16 11:42:00,
2013-04-16 04:02:00,10.0,3.0,-100.00,NW,317,5.0,9.0,71,0.00,,,0.00,0.700000,,2013-04-16 12:02:00,
2013-04-16 04:12:00,10.0,3.0,-100.00,NW,317,5.0,9.0,71,0.00,,,0.00,0.700000,,2013-04-16 12:12:00,
2013-04-16 04:22:00,10.0,3.0,-100.00,NW,317,5.0,9.0,71,0.00,,,0.00,0.700000,,2013-04-16 12:22:00,
2013-04-16 04:32:00,10.0,3.0,-100.00,NW,317,5.0,9.0,71,0.00,,,0.00,0.700000,,2013-04-16 12:32:00,
2013-04-16 04:42:00,10.0,3.0,-100.00,NW,317,5.0,9.0,71,0.00,,,0.00,0.700000,,2013-04-16 12:42:00,
2013-04-16 05:02:00,9.0,2.0,-100.00,NW,318,8.0,10.0,72,0.00,,,0.00,0.600000,,2013-04-16 13:02:00,
2013-04-16 05:12:00,9.0,2.0,-100.00,NW,318,8.0,10.0,72,0.00,,,0.00,0.600000,,2013-04-16 13:12:00,
2013-04-16 05:22:00,9.0,2.0,-100.00,NW,318,8.0,10.0,72,0.00,,,0.00,0.600000,,2013-04-16 13:22:00,
2013-04-16 05:32:00,9.0,2.0,-100.00,NW,318,8.0,10.0,72,0.00,,,0.00,0.600000,,2013-04-16 13:32:00,
2013-04-16 05:42:00,9.0,2.0,-100.00,NW,318,8.0,10.0,72,0.00,,,0.00,0.600000,,2013-04-16 13:42:00,
2013-04-16 06:02:00,9.0,2.0,-100.00,NW,310,7.0,11.0,73,0.00,,,0.00,0.700000,,2013-04-16 14:02:00,
2013-04-16 06:12:00,9.0,2.0,-100.00,NW,310,7.0,11.0,73,0.00,,,0.00,0.700000,,2013-04-16 14:12:00,
2013-04-16 06:22:00,9.0,2.0,-100.00,NW,310,7.0,11.0,73,0.00,,,0.00,0.700000,,2013-04-16 14:22:00,
2013-04-16 06:32:00,9.0,2.0,-100.00,NW,310,7.0,11.0,73,0.00,,,0.00,0.700000,,2013-04-16 14:32:00,
2013-04-16 06:42:00,9.0,2.0,-100.00,NW,310,7.0,11.0,73,0.00,,,0.00,0.700000,,2013-04-16 14:42:00,
2013-04-16 06:43:00,9.0,1.0,-100.00,NW,306,7.0,10.0,69,0.00,,,0.00,2.200000,,2013-04-16 14:43:00,
2013-04-16 07:02:00,9.0,1.0,-100.00,NW,306,7.0,10.0,69,0.00,,,0.00,2.200000,,2013-04-16 15:02:00,
2013-04-16 07:12:00,9.0,1.0,-100.00,NW,306,7.0,10.0,69,0.00,,,0.00,2.200000,,2013-04-16 15:12:00,
2013-04-16 07:22:00,9.0,1.0,-100.00,NW,306,7.0,10.0,69,0.00,,,0.00,2.200000,,2013-04-16 15:22:00,
2013-04-16 07:32:00,9.0,1.0,-100.00,NW,306,7.0,10.0,69,0.00,,,0.00,2.200000,,2013-04-16 15:32:00,
2013-04-16 08:03:00,11.0,1.0,-100.00,NW,314,8.0,10.0,64,0.00,,,0.00,63.599998,,2013-04-16 16:03:00,
2013-04-16 08:13:00,11.0,1.0,-100.00,NW,314,8.0,10.0,64,0.00,,,0.00,63.599998,,2013-04-16 16:13:00,
2013-04-16 08:23:00,11.0,1.0,-100.00,NW,314,8.0,10.0,64,0.00,,,0.00,63.599998,,2013-04-16 16:23:00,
2013-04-16 08:32:00,11.0,1.0,-100.00,NW,314,8.0,10.0,64,0.00,,,0.00,63.599998,,2013-04-16 16:32:00,
2013-04-16 08:42:00,11.0,1.0,-100.00,NW,314,8.0,10.0,64,0.00,,,0.00,63.599998,,2013-04-16 16:42:00,
2013-04-16 08:43:00,13.0,2.0,-100.00,WNW,299,5.0,12.0,60,0.00,,,0.00,193.399994,,2013-04-16 16:43:00,
2013-04-16 09:02:00,13.0,2.0,-100.00,WNW,299,5.0,12.0,60,0.00,,,0.00,193.399994,,2013-04-16 17:02:00,
2013-04-16 09:12:00,13.0,2.0,-100.00,WNW,299,5.0,12.0,60,0.00,,,0.00,193.399994,,2013-04-16 17:12:00,
2013-04-16 09:22:00,13.0,2.0,-100.00,WNW,299,5.0,12.0,60,0.00,,,0.00,193.399994,,2013-04-16 17:22:00,
2013-04-16 09:32:00,13.0,2.0,-100.00,WNW,299,5.0,12.0,60,0.00,,,0.00,193.399994,,2013-04-16 17:32:00,
2013-04-16 10:02:00,15.0,2.0,-100.00,NW,319,5.0,10.0,56,0.00,,,0.00,326.000000,,2013-04-16 18:02:00,
2013-04-16 10:12:00,15.0,2.0,-100.00,NW,319,5.0,10.0,56,0.00,,,0.00,326.000000,,2013-04-16 18:12:00,
2013-04-16 10:22:00,15.0,2.0,-100.00,NW,319,5.0,10.0,56,0.00,,,0.00,326.000000,,2013-04-16 18:22:00,
2013-04-16 10:32:00,15.0,2.0,-100.00,NW,319,5.0,10.0,56,0.00,,,0.00,326.000000,,2013-04-16 18:32:00,
2013-04-16 10:42:00,15.0,2.0,-100.00,NW,319,5.0,10.0,56,0.00,,,0.00,326.000000,,2013-04-16 18:42:00,
2013-04-16 11:02:00,14.0,1.0,-100.00,NW,315,10.0,11.0,56,0.00,,,0.00,459.700012,,2013-04-16 19:02:00,
2013-04-16 11:12:00,14.0,1.0,-100.00,NW,315,10.0,11.0,56,0.00,,,0.00,459.700012,,2013-04-16 19:12:00,
2013-04-16 11:22:00,14.0,1.0,-100.00,NW,315,10.0,11.0,56,0.00,,,0.00,459.700012,,2013-04-16 19:22:00,
2013-04-16 11:32:00,14.0,1.0,-100.00,NW,315,10.0,11.0,56,0.00,,,0.00,459.700012,,2013-04-16 19:32:00,
2013-04-16 11:42:00,14.0,1.0,-100.00,NW,315,10.0,11.0,56,0.00,,,0.00,459.700012,,2013-04-16 19:42:00,
2013-04-16 12:02:00,15.0,1.0,-100.00,NW,324,9.0,13.0,53,0.00,,,0.00,571.299988,,2013-04-16 20:02:00,
2013-04-16 12:12:00,15.0,1.0,-100.00,NW,324,9.0,13.0,53,0.00,,,0.00,571.299988,,2013-04-16 20:12:00,
2013-04-16 12:22:00,15.0,1.0,-100.00,NW,324,9.0,13.0,53,0.00,,,0.00,571.299988,,2013-04-16 20:22:00,
2013-04-16 12:32:00,15.0,1.0,-100.00,NW,324,9.0,13.0,53,0.00,,,0.00,571.299988,,2013-04-16 20:32:00,
2013-04-16 12:42:00,15.0,1.0,-100.00,NW,324,9.0,13.0,53,0.00,,,0.00,571.299988,,2013-04-16 20:42:00,
2013-04-16 13:02:00,13.0,0.0,-100.00,NW,314,14.0,14.0,56,0.00,,,0.00,653.599976,,2013-04-16 21:02:00,
2013-04-16 13:12:00,13.0,0.0,-100.00,NW,314,14.0,14.0,56,0.00,,,0.00,653.599976,,2013-04-16 21:12:00,
2013-04-16 13:22:00,13.0,0.0,-100.00,NW,314,14.0,14.0,56,0.00,,,0.00,653.599976,,2013-04-16 21:22:00,
2013-04-16 13:32:00,13.0,0.0,-100.00,NW,314,14.0,14.0,56,0.00,,,0.00,653.599976,,2013-04-16 21:32:00,
2013-04-16 13:42:00,13.0,0.0,-100.00,NW,314,14.0,14.0,56,0.00,,,0.00,653.599976,,2013-04-16 21:42:00,
2013-04-16 14:02:00,15.0,4.0,-100.00,NW,315,9.0,15.0,60,0.00,,,0.00,699.500000,,2013-04-16 22:02:00,
2013-04-16 14:12:00,15.0,4.0,-100.00,NW,315,9.0,15.0,60,0.00,,,0.00,699.500000,,2013-04-16 22:12:00,
2013-04-16 14:22:00,15.0,4.0,-100.00,NW,315,9.0,15.0,60,0.00,,,0.00,699.500000,,2013-04-16 22:22:00,
2013-04-16 14:32:00,15.0,4.0,-100.00,NW,315,9.0,15.0,60,0.00,,,0.00,699.500000,,2013-04-16 22:32:00,
2013-04-16 14:42:00,15.0,4.0,-100.00,NW,315,9.0,15.0,60,0.00,,,0.00,699.500000,,2013-04-16 22:42:00,
2013-04-16 15:02:00,14.0,5.0,-100.00,NW,321,13.0,13.0,66,0.00,,,0.00,706.000000,,2013-04-16 23:02:00,
2013-04-16 15:12:00,14.0,5.0,-100.00,NW,321,13.0,13.0,66,0.00,,,0.00,706.000000,,2013-04-16 23:12:00,
2013-04-16 15:22:00,14.0,5.0,-100.00,NW,321,13.0,13.0,66,0.00,,,0.00,706.000000,,2013-04-16 23:22:00,
2013-04-16 15:32:00,14.0,5.0,-100.00,NW,321,13.0,13.0,66,0.00,,,0.00,706.000000,,2013-04-16 23:32:00,
2013-04-16 15:42:00,14.0,5.0,-100.00,NW,321,13.0,13.0,66,0.00,,,0.00,706.000000,,2013-04-16 23:42:00,
2013-04-16 16:02:00,15.0,2.0,-100.00,NW,319,16.0,24.0,56,0.00,,,0.00,673.099976,,2013-04-17 00:02:00,
2013-04-16 16:12:00,15.0,2.0,-100.00,NW,319,16.0,24.0,56,0.00,,,0.00,673.099976,,2013-04-17 00:12:00,
2013-04-16 16:22:00,15.0,2.0,-100.00,NW,319,16.0,24.0,56,0.00,,,0.00,673.099976,,2013-04-17 00:22:00,
2013-04-16 16:32:00,15.0,2.0,-100.00,NW,319,16.0,24.0,56,0.00,,,0.00,673.099976,,2013-04-17 00:32:00,
2013-04-16 16:42:00,15.0,2.0,-100.00,NW,319,16.0,24.0,56,0.00,,,0.00,673.099976,,2013-04-17 00:42:00,
2013-04-16 17:02:00,15.0,3.0,-100.00,WNW,298,19.0,22.0,58,0.00,,,0.00,605.799988,,2013-04-17 01:02:00,
2013-04-16 17:12:00,15.0,3.0,-100.00,WNW,298,19.0,22.0,58,0.00,,,0.00,605.799988,,2013-04-17 01:12:00,
2013-04-16 17:22:00,15.0,3.0,-100.00,WNW,298,19.0,22.0,58,0.00,,,0.00,605.799988,,2013-04-17 01:22:00,
2013-04-16 17:32:00,15.0,3.0,-100.00,WNW,298,19.0,22.0,58,0.00,,,0.00,605.799988,,2013-04-17 01:32:00,
2013-04-16 17:42:00,15.0,3.0,-100.00,WNW,298,19.0,22.0,58,0.00,,,0.00,605.799988,,2013-04-17 01:42:00,
2013-04-16 18:02:00,14.0,3.0,-100.00,NW,311,16.0,23.0,59,0.00,,,0.00,506.899994,,2013-04-17 02:02:00,
2013-04-16 18:12:00,14.0,3.0,-100.00,NW,311,16.0,23.0,59,0.00,,,0.00,506.899994,,2013-04-17 02:12:00,
2013-04-16 18:22:00,14.0,3.0,-100.00,NW,311,16.0,23.0,59,0.00,,,0.00,506.899994,,2013-04-17 02:22:00,
2013-04-16 18:32:00,14.0,3.0,-100.00,NW,311,16.0,23.0,59,0.00,,,0.00,506.899994,,2013-04-17 02:32:00,
2013-04-16 18:42:00,14.0,3.0,-100.00,NW,311,16.0,23.0,59,0.00,,,0.00,506.899994,,2013-04-17 02:42:00,
2013-04-16 19:02:00,13.0,2.0,-100.00,NW,321,20.0,24.0,61,0.00,,,0.00,382.799988,,2013-04-17 03:02:00,
2013-04-16 19:12:00,13.0,2.0,-100.00,NW,321,20.0,24.0,61,0.00,,,0.00,382.799988,,2013-04-17 03:12:00,
2013-04-16 19:22:00,13.0,2.0,-100.00,NW,321,20.0,24.0,61,0.00,,,0.00,382.799988,,2013-04-17 03:22:00,
2013-04-16 19:32:00,13.0,2.0,-100.00,NW,321,20.0,24.0,61,0.00,,,0.00,382.799988,,2013-04-17 03:32:00,
2013-04-16 19:42:00,13.0,2.0,-100.00,NW,321,20.0,24.0,61,0.00,,,0.00,382.799988,,2013-04-17 03:42:00,
2013-04-16 20:03:00,12.0,0.0,-100.00,NW,311,20.0,23.0,59,0.00,,,0.00,249.199997,,2013-04-17 04:03:00,
2013-04-16 20:13:00,12.0,0.0,-100.00,NW,311,20.0,23.0,59,0.00,,,0.00,249.199997,,2013-04-17 04:13:00,
2013-04-16 20:22:00,12.0,0.0,-100.00,NW,311,20.0,23.0,59,0.00,,,0.00,249.199997,,2013-04-17 04:22:00,
2013-04-16 20:33:00,12.0,0.0,-100.00,NW,311,20.0,23.0,59,0.00,,,0.00,249.199997,,2013-04-17 04:33:00,
2013-04-16 20:42:00,12.0,0.0,-100.00,NW,311,20.0,23.0,59,0.00,,,0.00,249.199997,,2013-04-17 04:42:00,
2013-04-16 21:02:00,10.0,-2.0,-100.00,NNW,331,12.0,27.0,59,0.00,,,0.00,114.699997,,2013-04-17 05:02:00,
2013-04-16 21:12:00,10.0,-2.0,-100.00,NNW,331,12.0,27.0,59,0.00,,,0.00,114.699997,,2013-04-17 05:12:00,
2013-04-16 21:22:00,10.0,-2.0,-100.00,NNW,331,12.0,27.0,59,0.00,,,0.00,114.699997,,2013-04-17 05:22:00,
2013-04-16 21:32:00,10.0,-2.0,-100.00,NNW,331,12.0,27.0,59,0.00,,,0.00,114.699997,,2013-04-17 05:32:00,
2013-04-16 21:42:00,10.0,-2.0,-100.00,NNW,331,12.0,27.0,59,0.00,,,0.00,114.699997,,2013-04-17 05:42:00,
2013-04-16 22:02:00,8.0,-2.0,-100.00,WNW,297,14.0,25.0,61,0.00,,,0.00,15.500000,,2013-04-17 06:02:00,
2013-04-16 22:12:00,8.0,-2.0,-100.00,WNW,297,14.0,25.0,61,0.00,,,0.00,15.500000,,2013-04-17 06:12:00,
2013-04-16 22:22:00,8.0,-2.0,-100.00,WNW,297,14.0,25.0,61,0.00,,,0.00,15.500000,,2013-04-17 06:22:00,
2013-04-16 22:32:00,8.0,-2.0,-100.00,WNW,297,14.0,25.0,61,0.00,,,0.00,15.500000,,2013-04-17 06:32:00,
2013-04-16 22:42:00,8.0,-2.0,-100.00,WNW,297,14.0,25.0,61,0.00,,,0.00,15.500000,,2013-04-17 06:42:00,
2013-04-16 23:02:00,9.0,-1.0,-100.00,NW,314,10.0,17.0,63,0.00,,,0.00,0.800000,,2013-04-17 07:02:00,
2013-04-16 23:12:00,9.0,-1.0,-100.00,NW,314,10.0,17.0,63,0.00,,,0.00,0.800000,,2013-04-17 07:12:00,
2013-04-16 23:22:00,9.0,-1.0,-100.00,NW,314,10.0,17.0,63,0.00,,,0.00,0.800000,,2013-04-17 07:22:00,
2013-04-16 23:32:00,9.0,-1.0,-100.00,NW,314,10.0,17.0,63,0.00,,,0.00,0.800000,,2013-04-17 07:32:00,
2013-04-16 23:42:00,9.0,-1.0,-100.00,NW,314,10.0,17.0,63,0.00,,,0.00,0.800000,,2013-04-17 07:42:00,